Latest Weather Observations for Fitzroy Crossing

IDW60801

Issued at 2:05 pm WST Sunday 26 October 2014 (issued every 30 minutes, with the page automatically refreshed every 10 minutes)

About weather observations | Map of weather stations | Latest weather observations for WA | Other Formats
Station Details ID: 003093 Name: FITZROY CROSSING AERO Lat: -18.18 Lon: 125.56 Height: 114.5 m
Data from the previous 72 hours. | See also: Recent months at Fitzroy Crossing
Date/Time
WST
Temp
°C
App
Temp
°C
Dew
Point
Rel
Hum
%
Delta-T
°C
Wind Press
QNH
hPa
Press
MSL
hPa
Rain
since 9 am
mm
Dir
 
Spd
km/h
Gust
km/h
Spd
kts
Gust
kts
26/02:00pm 40.4 38.6 7.8 14 18.8 ENE 7 13 4 7 1008.5 1007.6 0.0
26/01:30pm 41.1 36.9 8.3 14 19.1 E 20 26 11 14 1008.8 1007.9 0.0
26/01:00pm 39.8 36.8 9.2 16 17.9 NE 15 26 8 14 1009.3 1008.4 0.0
26/12:30pm 40.6 38.3 8.9 15 18.6 E 11 19 6 10 1009.7 1008.9 0.0
26/12:00pm 39.1 36.8 10.4 18 17.1 NE 13 22 7 12 1010.2 1009.4 0.0
26/11:30am 38.8 36.5 11.8 20 16.4 N 15 28 8 15 1010.7 1009.9 0.0
26/11:00am 38.1 37.4 13.3 22 15.3 NE 9 17 5 9 1011.5 1010.7 0.0
26/10:30am 36.1 37.1 16.8 32 12.4 NNW 7 15 4 8 1012.0 1011.2 0.0
26/10:00am 35.5 36.5 17.7 35 11.6 SW 9 17 5 9 1012.6 1011.8 0.0
26/09:30am 34.4 35.9 18.0 37 10.7 WNW 7 13 4 7 1013.2 1012.4 0.0
26/09:00am 33.5 35.3 18.4 40 9.9 NW 6 13 3 7 1013.7 1012.9 0.0
26/08:30am 32.6 33.7 18.8 44 9.0 W 11 20 6 11 1014.0 1013.1 0.0
26/08:00am 31.6 32.3 18.9 47 8.3 W 13 20 7 11 1014.0 1013.1 0.0
26/07:30am 30.4 30.5 19.1 50 7.4 WNW 17 24 9 13 1014.0 1013.1 0.0
26/07:00am 29.5 29.4 19.5 55 6.5 WNW 19 22 10 12 1013.9 1013.0 0.0
26/06:30am 28.3 28.3 20.1 61 5.4 WNW 20 28 11 15 1013.6 1012.8 0.0
26/06:00am 27.4 29.0 20.7 67 4.4 NW 13 17 7 9 1013.3 1012.5 0.0
26/05:30am 26.5 28.0 20.6 70 3.9 WNW 13 17 7 9 1013.1 1012.3 0.0
26/05:00am 25.8 27.7 20.6 73 3.4 WNW 11 15 6 8 1012.8 1012.0 0.0
26/04:30am 25.4 27.3 19.8 71 3.6 NW 9 13 5 7 1012.5 1011.7 0.0
26/04:00am 26.0 27.8 20.3 71 3.7 NNW 11 15 6 8 1012.0 1011.2 0.0
26/03:30am 26.6 28.0 20.4 69 4.1 NW 13 17 7 9 1011.8 1011.0 0.0
26/03:00am 27.1 27.8 20.4 66 4.4 NW 17 20 9 11 1011.8 1011.0 0.0
26/02:30am 27.4 28.5 20.5 66 4.6 NW 15 20 8 11 1011.5 1010.7 0.0
26/02:00am 27.8 28.1 20.4 64 4.9 N 19 22 10 12 1011.3 1010.5 0.0
26/01:30am 27.9 29.4 20.5 64 4.9 NNW 13 17 7 9 1011.2 1010.4 0.0
26/01:00am 27.6 29.0 20.4 65 4.8 NNW 13 15 7 8 1010.9 1010.1 0.0
26/12:30am 28.0 29.2 19.8 61 5.4 NW 13 17 7 9 1010.9 1010.1 0.0
26/12:00am 28.8 30.1 19.4 56 6.1 N 11 13 6 7 1011.3 1010.5 0.0
 
Date/Time
WST
Temp
°C
App
Temp
°C
Dew
Point
Rel
Hum
%
Delta-T
°C
Wind Press
QNH
hPa
Press
MSL
hPa
Rain
since 9 am
mm
Dir
 
Spd
km/h
Gust
km/h
Spd
kts
Gust
kts
25/11:30pm 28.5 29.1 17.7 52 6.9 N 11 13 6 7 1011.3 1010.5 0.0
25/11:00pm 29.0 28.7 15.5 44 8.3 N 11 13 6 7 1011.4 1010.6 0.0
25/10:30pm 29.8 28.7 11.8 33 10.5 NW 9 13 5 7 1011.3 1010.5 0.0
25/10:00pm 29.0 25.7 8.1 27 11.5 NW 15 19 8 10 1011.3 1010.5 0.0
25/09:30pm 30.5 30.0 7.7 24 12.5 CALM 0 0 0 0 1011.1 1010.3 0.0
25/09:00pm 32.9 31.2 8.4 22 13.8 SW 7 7 4 4 1010.9 1010.1 0.0
25/08:30pm 33.6 31.5 8.3 21 14.2 SW 9 11 5 6 1011.0 1010.2 0.0
25/08:00pm 34.2 32.0 8.0 20 14.7 SSW 9 11 5 6 1010.9 1010.1 0.0
25/07:30pm 34.7 33.0 8.4 20 14.9 SW 7 9 4 5 1010.8 1010.0 0.0
25/07:00pm 35.5 33.8 8.3 19 15.4 SSW 7 9 4 5 1010.5 1009.7 0.0
25/06:30pm 36.8 35.2 8.6 18 16.2 S 7 9 4 5 1010.2 1009.4 0.0
25/06:00pm 37.2 35.4 8.1 17 16.6 S 7 9 4 5 1009.9 1009.1 0.0
25/05:30pm 38.6 36.9 7.4 15 17.7 SSW 6 9 3 5 1009.7 1008.9 0.0
25/05:00pm 39.5 37.5 7.1 14 18.4 ESE 7 15 4 8 1009.6 1008.8 0.0
25/04:30pm 39.9 38.2 7.4 14 18.6 SSE 6 11 3 6 1009.3 1008.4 0.0
25/04:00pm 40.5 39.6 7.8 14 18.9 NNW 2 6 1 3 1009.2 1008.3 0.0
25/03:30pm 39.9 37.2 7.4 14 18.6 SSE 11 17 6 9 1009.3 1008.4 0.0
25/03:00pm 40.6 38.4 7.9 14 18.9 SE 9 35 5 19 1009.3 1008.4 0.0
25/02:30pm 39.9 37.2 7.4 14 18.6 SE 11 19 6 10 1009.7 1008.9 0.0
25/02:00pm 39.8 36.3 7.3 14 18.5 NNE 15 22 8 12 1010.1 1009.3 0.0
25/01:30pm 39.9 38.5 7.4 14 18.6 NNW 4 17 2 9 1010.4 1009.6 0.0
25/01:00pm 39.6 37.7 9.1 16 17.8 NNE 9 22 5 12 1010.7 1009.9 0.0
25/12:30pm 39.1 35.8 9.6 17 17.3 N 17 26 9 14 1011.3 1010.5 0.0
25/12:00pm 39.6 38.4 11.7 19 16.9 NNE 9 19 5 10 1011.8 1011.0 0.0
25/11:30am 38.2 38.4 12.0 21 15.9 SW 2 7 1 4 1012.4 1011.6 0.0
25/11:00am 36.8 37.3 12.9 24 14.6 NNW 2 11 1 6 1013.1 1012.3 0.0
25/10:30am 36.5 36.8 13.3 25 14.2 WNW 4 11 2 6 1013.6 1012.8 0.0
25/10:00am 35.4 34.4 13.5 26 13.4 SSW 11 20 6 11 1014.1 1013.2 0.0
25/09:30am 35.3 35.1 14.6 29 12.9 WNW 9 28 5 15 1014.4 1013.5 0.0
25/09:00am 34.0 34.5 15.0 32 11.8 SSW 6 15 3 8 1014.9 1014.0 0.0
25/08:30am 33.0 32.7 16.4 37 10.5 W 13 19 7 10 1015.1 1014.2 0.0
25/08:00am 32.1 31.6 17.9 42 9.2 WNW 17 22 9 12 1015.2 1014.3 0.0
25/07:30am 30.4 30.1 19.1 50 7.4 WNW 19 22 10 12 1015.3 1014.4 0.0
25/07:00am 29.9 30.0 19.9 55 6.6 WNW 19 28 10 15 1015.3 1014.4 0.0
25/06:30am 28.3 28.3 20.1 61 5.4 NW 20 26 11 14 1015.1 1014.2 0.0
25/06:00am 27.2 28.1 20.0 64 4.7 NW 15 20 8 11 1014.8 1013.9 0.0
25/05:30am 26.3 27.3 19.4 66 4.5 NW 13 17 7 9 1014.2 1013.3 0.0
25/05:00am 26.3 27.3 19.4 66 4.5 NW 13 17 7 9 1013.6 1012.8 0.0
25/04:30am 26.2 27.4 19.1 65 4.6 WNW 11 13 6 7 1013.4 1012.6 0.0
25/04:00am 25.8 26.6 18.2 63 4.8 NW 11 13 6 7 1013.1 1012.3 0.0
25/03:30am 26.9 27.9 18.7 60 5.3 N 11 13 6 7 1012.8 1012.0 0.0
25/03:00am 26.1 27.6 18.8 64 4.7 NNW 9 13 5 7 1012.2 1011.4 0.0
25/02:30am 26.8 27.8 18.6 60 5.3 NW 11 15 6 8 1011.7 1010.9 0.0
25/02:00am 27.0 27.7 18.0 58 5.7 NW 11 13 6 7 1011.4 1010.6 0.0
25/01:30am 27.9 28.2 18.0 55 6.3 NW 13 17 7 9 1011.1 1010.3 0.0
25/01:00am 28.1 28.7 17.6 53 6.7 NNW 11 13 6 7 1011.0 1010.2 0.0
25/12:30am 28.9 29.4 17.4 49 7.3 N 11 13 6 7 1010.8 1010.0 0.0
25/12:00am 30.7 31.5 18.1 47 8.1 WNW 11 17 6 9 1010.9 1010.1 0.0
 
Date/Time
WST
Temp
°C
App
Temp
°C
Dew
Point
Rel
Hum
%
Delta-T
°C
Wind Press
QNH
hPa
Press
MSL
hPa
Rain
since 9 am
mm
Dir
 
Spd
km/h
Gust
km/h
Spd
kts
Gust
kts
24/11:30pm 31.3 31.4 18.3 46 8.4 W 15 20 8 11 1011.0 1010.2 0.0
24/11:00pm 31.6 31.4 18.6 46 8.5 WNW 17 20 9 11 1011.1 1010.3 0.0
24/10:30pm 30.1 29.9 14.6 39 9.5 WNW 9 13 5 7 1011.3 1010.5 0.0
24/10:00pm 30.3 29.4 11.3 31 11.0 NW 7 9 4 5 1011.3 1010.5 0.0
24/09:30pm 31.4 30.5 11.2 29 11.8 N 7 9 4 5 1011.4 1010.6 0.0
24/09:00pm 34.3 33.2 12.0 25 13.3 W 9 15 5 8 1011.1 1010.3 0.0
24/08:30pm 33.6 33.5 12.0 27 12.9 NNW 4 7 2 4 1010.9 1010.1 0.0
24/08:00pm 34.1 34.1 11.3 25 13.5 E 2 6 1 3 1010.8 1010.0 0.0
24/07:30pm 33.4 32.9 10.7 25 13.2 NNE 4 15 2 8 1010.6 1009.8 0.0
24/07:00pm 34.1 32.8 10.0 23 14.0 W 7 11 4 6 1010.2 1009.4 0.0
24/06:30pm 35.7 34.6 10.7 22 14.7 W 7 9 4 5 1009.8 1009.0 0.0
24/06:00pm 36.8 36.5 8.6 18 16.2 CALM 0 6 0 3 1009.5 1008.7 0.0
24/05:30pm 37.6 36.1 8.4 17 16.7 SE 6 7 3 4 1009.0 1008.1 0.0
24/05:00pm 38.5 36.8 8.2 16 17.4 E 7 9 4 5 1008.7 1007.8 0.0
24/04:30pm 38.9 37.4 8.5 16 17.6 S 6 11 3 6 1008.6 1007.7 0.0
24/04:00pm 39.1 37.1 8.7 16 17.7 SSE 9 15 5 8 1008.7 1007.8 0.0
24/03:30pm 39.5 37.6 9.0 16 17.8 SW 9 19 5 10 1008.8 1007.9 0.0
24/03:00pm 39.2 37.7 10.5 18 17.1 N 9 13 5 7 1009.1 1008.2 0.0
24/02:30pm 38.5 36.1 10.0 18 16.8 NNW 13 22 7 12 1009.3 1008.4 0.0
24/02:00pm 40.0 38.7 11.2 18 17.4 WNW 9 20 5 11 1009.6 1008.8 0.0
24/01:30pm 39.4 38.9 10.7 18 17.1 SW 4 11 2 6 1009.8 1009.0 0.0
24/01:00pm 39.5 36.9 10.8 18 17.2 WNW 15 24 8 13 1010.1 1009.3 0.0
24/12:30pm 38.4 37.2 11.5 20 16.2 W 9 20 5 11 1010.5 1009.7 0.0
24/12:00pm 37.8 34.7 11.7 21 15.7 WNW 19 24 10 13 1011.1 1010.3 0.0
24/11:30am 37.7 37.3 13.0 23 15.2 N 7 17 4 9 1011.5 1010.7 0.0
24/11:00am 37.0 34.1 12.4 23 14.9 W 19 24 10 13 1012.0 1011.2 0.0
24/10:30am 36.1 35.0 13.0 25 14.1 WNW 11 22 6 12 1012.4 1011.6 0.0
24/10:00am 35.3 33.9 13.5 27 13.4 NW 13 22 7 12 1012.9 1012.1 0.0
24/09:30am 34.7 33.1 14.0 28 12.7 W 15 26 8 14 1013.3 1012.5 0.0
24/09:00am 33.4 32.4 13.5 30 12.1 WNW 11 24 6 13 1013.6 1012.8 0.0
24/08:30am 32.5 31.8 16.3 37 10.2 NW 15 20 8 11 1014.0 1013.1 0.0
24/08:00am 31.8 30.5 16.9 40 9.5 WNW 19 24 10 13 1014.0 1013.1 0.0
24/07:30am 30.4 29.2 18.5 49 7.7 WNW 22 28 12 15 1013.7 1012.9 0.0
24/07:00am 29.3 28.2 18.7 52 6.9 NW 22 32 12 17 1013.9 1013.0 0.0
24/06:30am 28.2 27.8 18.9 57 6.0 WNW 19 26 10 14 1013.7 1012.9 0.0
24/06:00am 26.3 27.3 16.8 56 5.9 WNW 7 9 4 5 1013.5 1012.7 0.0
24/05:30am 26.0 26.9 16.5 55 5.9 NW 7 9 4 5 1013.3 1012.5 0.0
24/05:00am 25.7 26.3 15.7 54 6.1 WNW 7 9 4 5 1013.0 1012.2 0.0
24/04:30am 26.0 27.8 15.4 52 6.5 CALM 0 0 0 0 1012.7 1011.9 0.0
24/04:00am 26.2 27.9 15.3 51 6.6 CALM 0 6 0 3 1012.4 1011.6 0.0
24/03:30am 26.6 27.1 15.6 50 6.7 N 7 9 4 5 1012.0 1011.2 0.0
24/03:00am 26.8 26.0 15.2 49 7.1 NNW 13 15 7 8 1011.7 1010.9 0.0
24/02:30am 27.3 26.6 15.3 48 7.3 N 13 15 7 8 1011.4 1010.6 0.0
24/02:00am 27.8 27.4 15.1 46 7.8 NNE 11 15 6 8 1011.3 1010.5 0.0
24/01:30am 28.3 27.0 14.9 44 8.2 N 15 20 8 11 1011.0 1010.2 0.0
24/01:00am 28.0 26.5 13.1 39 8.8 N 13 13 7 7 1011.0 1010.2 0.0
24/12:30am 28.7 27.4 13.8 40 8.9 NNE 13 15 7 8 1011.0 1010.2 0.0
24/12:00am 28.9 28.1 13.9 39 9.0 N 11 13 6 7 1010.9 1010.1 0.0
 
Date/Time
WST
Temp
°C
App
Temp
°C
Dew
Point
Rel
Hum
%
Delta-T
°C
Wind Press
QNH
hPa
Press
MSL
hPa
Rain
since 9 am
mm
Dir
 
Spd
km/h
Gust
km/h
Spd
kts
Gust
kts
23/11:30pm 29.5 29.2 13.3 37 9.7 NNW 7 9 4 5 1010.7 1009.9 0.0
23/11:00pm 30.3 29.1 14.0 37 9.9 WSW 13 15 7 8 1010.8 1010.0 0.0
23/10:30pm 30.4 29.5 13.7 36 10.1 WSW 11 15 6 8 1011.1 1010.3 0.0
23/10:00pm 30.6 29.2 13.4 35 10.3 SW 13 17 7 9 1011.1 1010.3 0.0
23/09:30pm 31.3 30.1 14.0 35 10.5 SW 13 15 7 8 1011.2 1010.4 0.0
23/09:00pm 31.3 30.4 13.6 34 10.7 W 11 15 6 8 1010.9 1010.1 0.0
23/08:30pm 31.8 29.8 14.0 34 10.8 WNW 17 24 9 13 1011.0 1010.2 0.0
23/08:00pm 32.9 30.4 13.5 30 11.8 WSW 19 26 10 14 1010.6 1009.8 0.0
23/07:30pm 34.1 34.3 10.7 24 13.7 CALM 0 0 0 0 1010.3 1009.5 0.0
23/07:00pm 35.0 33.9 10.1 22 14.5 WSW 6 7 3 4 1010.0 1009.2 0.0
23/06:30pm 35.1 33.9 11.5 24 14.0 W 9 13 5 7 1009.7 1008.9 0.0
23/06:00pm 36.1 32.8 11.0 22 14.9 W 19 24 10 13 1009.2 1008.3 0.0
23/05:30pm 37.3 35.7 8.2 17 16.6 NE 6 7 3 4 1008.9 1008.0 0.0
23/05:00pm 38.1 36.3 7.9 16 17.3 ENE 7 11 4 6 1008.4 1007.5 0.0
23/04:30pm 39.1 36.5 7.7 15 17.9 E 11 15 6 8 1008.2 1007.3 0.0
23/04:00pm 39.6 37.5 8.1 15 18.2 E 9 19 5 10 1008.1 1007.2 0.0
23/03:30pm 40.2 38.2 8.6 15 18.4 SE 9 17 5 9 1007.9 1007.0 0.0
23/03:00pm 39.6 38.3 9.1 16 17.9 NNE 6 15 3 8 1008.2 1007.3 0.0
23/02:30pm 39.6 37.9 10.0 17 17.5 N 9 15 5 8 1008.5 1007.6 0.0

Other Formats:

Comma delimited format used in spreadsheet applications
http://www.bom.gov.au/fwo/IDW60801/IDW60801.94206.axf

JavaScript Object Notation format (JSON) in row-major order
http://www.bom.gov.au/fwo/IDW60801/IDW60801.94206.json